createdAt,value
2019-05-30T00:01:35.992Z,6.30
2019-05-30T00:04:05.489Z,5.90
2019-05-30T00:06:35.929Z,6.90
2019-05-30T00:09:08.515Z,6.70
2019-05-30T00:11:39.456Z,5.97
2019-05-30T00:14:09.162Z,6.20
2019-05-30T00:16:38.733Z,6.70
2019-05-30T00:19:08.229Z,8.97
2019-05-30T00:21:37.678Z,6.30
2019-05-30T00:24:08.327Z,7.70
2019-05-30T00:26:37.837Z,6.77
2019-05-30T00:29:07.344Z,9.53
2019-05-30T00:31:37.008Z,7.60
2019-05-30T00:34:06.900Z,8.00
2019-05-30T00:36:36.337Z,6.23
2019-05-30T00:39:07.480Z,6.53
2019-05-30T00:41:36.914Z,7.43
2019-05-30T00:44:06.503Z,6.20
2019-05-30T00:46:36.275Z,7.10
2019-05-30T00:49:06.640Z,7.47
2019-05-30T00:51:36.245Z,6.37
2019-05-30T00:54:07.017Z,8.83
2019-05-30T00:56:36.931Z,6.70
2019-05-30T00:59:06.974Z,6.83
2019-05-30T01:01:36.540Z,6.87
2019-05-30T01:04:07.131Z,7.30
2019-05-30T01:06:38.253Z,7.20
2019-05-30T01:09:07.998Z,6.60
2019-05-30T01:11:37.536Z,7.77
2019-05-30T01:14:08.624Z,10.43
2019-05-30T01:16:38.139Z,9.30
2019-05-30T01:19:08.041Z,8.33
2019-05-30T01:21:39.027Z,8.17
2019-05-30T01:24:08.510Z,8.03
2019-05-30T01:26:38.019Z,8.53
2019-05-30T01:29:07.841Z,11.17
2019-05-30T01:31:37.459Z,11.77
2019-05-30T01:34:07.929Z,8.97
2019-05-30T01:36:37.619Z,9.07
2019-05-30T01:39:08.150Z,10.90
2019-05-30T01:41:37.817Z,9.10
2019-05-30T01:44:08.375Z,12.17
2019-05-30T01:46:37.922Z,10.30
2019-05-30T01:49:08.717Z,10.90
2019-05-30T01:51:38.356Z,10.67
2019-05-30T01:54:08.795Z,9.87
2019-05-30T01:56:38.399Z,10.97
2019-05-30T01:59:09.615Z,11.23
2019-05-30T02:01:39.041Z,10.93
2019-05-30T02:04:09.436Z,10.77
2019-05-30T02:06:39.182Z,11.33
2019-05-30T02:09:10.212Z,11.57
2019-05-30T02:11:40.558Z,12.00
2019-05-30T02:14:11.347Z,11.13
2019-05-30T02:16:42.286Z,12.27
2019-05-30T02:19:11.805Z,14.20
2019-05-30T02:21:41.377Z,12.60
2019-05-30T02:24:12.218Z,12.57
2019-05-30T02:26:41.915Z,12.37
2019-05-30T02:29:11.524Z,12.70
2019-05-30T02:31:41.006Z,13.43
2019-05-30T02:34:12.264Z,12.97
2019-05-30T02:36:42.642Z,14.03
2019-05-30T02:39:12.379Z,13.43
2019-05-30T02:41:41.891Z,13.40
2019-05-30T02:44:12.612Z,17.87
2019-05-30T02:46:42.330Z,14.00
2019-05-30T02:49:13.804Z,13.60
2019-05-30T02:51:43.481Z,14.37
2019-05-30T02:54:13.362Z,13.33
2019-05-30T02:56:43.252Z,14.03
2019-05-30T02:59:13.672Z,14.20
2019-05-30T03:02:00.236Z,14.13
2019-05-30T03:04:16.645Z,14.60
2019-05-30T03:06:46.419Z,13.60
2019-05-30T03:09:16.672Z,15.23
2019-05-30T03:11:46.255Z,14.60
2019-05-30T03:14:19.397Z,14.33
2019-05-30T03:16:47.121Z,14.83
2019-05-30T03:19:16.740Z,14.27
2019-05-30T03:21:46.197Z,14.87
2019-05-30T03:24:15.780Z,13.43
2019-05-30T03:26:45.486Z,14.13
2019-05-30T03:29:15.012Z,13.57
2019-05-30T03:31:46.884Z,13.47
2019-05-30T03:34:25.503Z,15.47
2019-05-30T03:36:47.582Z,13.53
2019-05-30T03:39:17.129Z,14.07
2019-05-30T03:41:46.659Z,13.83
2019-05-30T03:44:16.112Z,17.30
2019-05-30T03:46:51.567Z,14.30
2019-05-30T03:49:24.004Z,14.83
2019-05-30T03:51:56.298Z,14.77
2019-05-30T03:54:27.119Z,15.57
2019-05-30T03:57:17.981Z,14.30
2019-05-30T03:59:59.488Z,15.60
2019-05-30T04:02:57.148Z,15.27
2019-05-30T04:05:24.323Z,17.27
2019-05-30T04:07:55.871Z,15.00
2019-05-30T04:10:30.958Z,15.53
2019-05-30T04:13:16.846Z,16.17
2019-05-30T04:15:46.016Z,17.27
2019-05-30T04:18:16.430Z,18.77
2019-05-30T04:20:46.158Z,19.67
2019-05-30T04:23:16.967Z,20.50
2019-05-30T04:25:47.029Z,20.30
2019-05-30T04:28:18.562Z,22.47
2019-05-30T04:30:47.650Z,21.87
2019-05-30T04:33:31.649Z,24.53
2019-05-30T04:35:48.217Z,24.50
2019-05-30T04:38:19.274Z,25.97
2019-05-30T04:40:49.105Z,25.43
2019-05-30T04:43:20.194Z,26.30
2019-05-30T04:45:49.920Z,28.37
2019-05-30T04:48:21.278Z,26.67
2019-05-30T04:50:50.914Z,27.03
2019-05-30T04:53:20.886Z,26.23
2019-05-30T04:55:50.653Z,26.53
2019-05-30T04:58:21.874Z,28.20
2019-05-30T05:00:51.348Z,26.13
2019-05-30T05:03:41.630Z,26.03
2019-05-30T05:05:51.898Z,25.67
2019-05-30T05:08:22.104Z,25.80
2019-05-30T05:10:51.799Z,25.67
2019-05-30T05:13:22.562Z,24.63
2019-05-30T05:15:52.282Z,25.20
2019-05-30T05:18:23.255Z,24.50
2019-05-30T05:20:52.922Z,25.63
2019-05-30T05:23:23.405Z,26.77
2019-05-30T05:26:01.022Z,26.23
2019-05-30T05:28:24.806Z,25.03
2019-05-30T05:30:54.225Z,27.80
2019-05-30T05:33:24.761Z,25.27
2019-05-30T05:35:54.267Z,25.03
2019-05-30T05:38:24.454Z,27.50
2019-05-30T05:40:54.043Z,26.03
2019-05-30T05:43:24.458Z,25.27
2019-05-30T05:45:54.082Z,26.50
2019-05-30T05:48:24.715Z,25.07
2019-05-30T05:50:54.467Z,25.90
2019-05-30T05:53:25.093Z,26.07
2019-05-30T05:55:54.603Z,25.90
2019-05-30T05:58:26.144Z,25.33
2019-05-30T06:01:14.441Z,26.23
2019-05-30T06:03:43.892Z,26.37
2019-05-30T06:06:13.573Z,25.97
2019-05-30T06:08:43.021Z,26.23
2019-05-30T06:11:12.564Z,24.60
2019-05-30T06:13:42.570Z,23.37
2019-05-30T06:16:12.045Z,22.67
2019-05-30T06:18:41.670Z,22.67
2019-05-30T06:21:11.087Z,23.83
2019-05-30T06:23:40.540Z,23.57
2019-05-30T06:26:10.003Z,22.33
2019-05-30T06:28:39.776Z,23.27
2019-05-30T06:31:09.275Z,23.50
2019-05-30T06:33:38.723Z,23.97
2019-05-30T06:36:08.208Z,21.03
2019-05-30T06:38:37.723Z,22.97
2019-05-30T06:41:07.425Z,23.03
2019-05-30T06:43:36.959Z,22.13
2019-05-30T06:46:06.420Z,22.47
2019-05-30T06:48:35.906Z,20.67
2019-05-30T06:51:06.057Z,21.33
2019-05-30T06:53:37.325Z,20.80
2019-05-30T06:56:06.828Z,19.53
2019-05-30T06:58:47.961Z,19.93
2019-05-30T07:01:07.438Z,22.10
2019-05-30T07:03:37.202Z,21.60
2019-05-30T07:06:07.001Z,20.90
2019-05-30T07:08:37.097Z,21.97
2019-05-30T07:11:06.587Z,20.03
2019-05-30T07:13:36.402Z,18.67
2019-05-30T07:16:06.057Z,18.13
2019-05-30T07:18:36.837Z,18.40
2019-05-30T07:21:06.693Z,18.17
2019-05-30T07:23:39.231Z,18.23
2019-05-30T07:26:07.563Z,16.70
2019-05-30T07:28:37.175Z,17.83
2019-05-30T07:31:06.751Z,17.43
2019-05-30T07:33:36.743Z,18.47
2019-05-30T07:36:06.232Z,18.20
2019-05-30T07:38:35.756Z,19.70
2019-05-30T07:41:05.352Z,18.73
2019-05-30T07:43:35.316Z,18.67
2019-05-30T07:46:04.834Z,19.73
2019-05-30T07:48:34.386Z,20.60
2019-05-30T07:51:04.022Z,19.60
2019-05-30T07:53:33.489Z,19.43
2019-05-30T07:56:03.006Z,20.43
2019-05-30T07:58:33.351Z,18.47
2019-05-30T08:01:03.486Z,19.10
2019-05-30T08:03:33.154Z,18.07
2019-05-30T08:06:02.763Z,17.97
2019-05-30T08:08:32.195Z,17.53
2019-05-30T08:11:09.377Z,18.13
2019-05-30T08:13:33.299Z,18.27
2019-05-30T08:16:02.720Z,16.93
2019-05-30T08:18:33.793Z,17.10
2019-05-30T08:21:03.168Z,16.70
2019-05-30T08:23:32.632Z,15.70
2019-05-30T08:26:02.229Z,15.93
2019-05-30T08:28:32.246Z,16.07
2019-05-30T08:31:01.798Z,15.40
2019-05-30T08:33:31.460Z,16.00
2019-05-30T08:36:00.931Z,14.93
2019-05-30T08:38:31.365Z,14.90
2019-05-30T08:41:00.781Z,14.67
2019-05-30T08:43:31.226Z,14.43
2019-05-30T08:46:00.713Z,15.10
2019-05-30T08:48:30.230Z,14.03
2019-05-30T08:50:59.710Z,14.00
2019-05-30T08:53:30.159Z,13.80
2019-05-30T08:55:59.765Z,15.20
2019-05-30T08:58:30.332Z,14.13
2019-05-30T09:01:00.238Z,13.90
2019-05-30T09:03:29.677Z,14.70
2019-05-30T09:06:04.108Z,14.90
2019-05-30T09:08:30.424Z,14.23
2019-05-30T09:11:00.088Z,14.47
2019-05-30T09:13:29.494Z,14.70
2019-05-30T09:15:59.118Z,14.33
2019-05-30T09:18:28.713Z,14.53
2019-05-30T09:20:58.167Z,13.53
2019-05-30T09:23:27.767Z,15.03
2019-05-30T09:25:57.273Z,14.57
2019-05-30T09:28:26.722Z,15.23
2019-05-30T09:30:56.166Z,14.63
2019-05-30T09:33:27.700Z,14.60
2019-05-30T09:36:12.175Z,15.23
2019-05-30T09:38:28.496Z,15.10
2019-05-30T09:40:58.114Z,14.27
2019-05-30T09:43:27.641Z,15.53
2019-05-30T09:45:57.259Z,16.13
2019-05-30T09:48:26.673Z,15.37
2019-05-30T09:50:56.240Z,15.53
2019-05-30T09:53:26.660Z,16.37
2019-05-30T09:55:56.099Z,15.20
2019-05-30T09:58:25.586Z,17.50
2019-05-30T10:00:55.127Z,15.27
2019-05-30T10:03:24.618Z,14.90
2019-05-30T10:05:54.108Z,14.67
2019-05-30T10:08:23.726Z,15.20
2019-05-30T10:10:53.553Z,13.97
2019-05-30T10:13:23.130Z,14.60
2019-05-30T10:15:52.707Z,15.93
2019-05-30T10:18:22.210Z,15.40
2019-05-30T10:20:53.253Z,16.50
2019-05-30T10:23:23.178Z,18.40
2019-05-30T10:25:53.330Z,15.63
2019-05-30T10:28:22.863Z,15.47
2019-05-30T10:30:57.095Z,14.47
2019-05-30T10:33:23.527Z,15.90
2019-05-30T10:35:53.493Z,16.13
2019-05-30T10:38:23.105Z,17.07
2019-05-30T10:40:53.951Z,15.67
2019-05-30T10:43:25.474Z,16.03
2019-05-30T10:45:55.130Z,16.10
2019-05-30T10:48:24.577Z,15.77
2019-05-30T10:50:54.464Z,17.57
2019-05-30T10:53:24.060Z,14.83
2019-05-30T10:55:54.793Z,16.73
2019-05-30T10:58:24.508Z,18.50
2019-05-30T11:00:57.784Z,17.50
2019-05-30T11:03:28.224Z,15.80
2019-05-30T11:06:20.158Z,15.80
2019-05-30T11:08:52.867Z,17.93
2019-05-30T11:11:22.358Z,17.00
2019-05-30T11:13:53.185Z,17.27
2019-05-30T11:16:24.517Z,18.13
2019-05-30T11:18:54.621Z,17.13
2019-05-30T11:21:25.261Z,13.77
2019-05-30T11:23:54.674Z,14.60
2019-05-30T11:26:24.115Z,16.37
2019-05-30T11:28:54.685Z,15.47
2019-05-30T11:31:24.349Z,15.73
2019-05-30T11:33:55.018Z,16.80
2019-05-30T11:36:24.653Z,16.77
2019-05-30T11:38:55.259Z,14.90
2019-05-30T11:41:24.874Z,18.60
2019-05-30T11:43:55.483Z,14.13
2019-05-30T11:46:25.115Z,15.27
2019-05-30T11:48:55.643Z,16.80
2019-05-30T11:51:25.460Z,16.03
2019-05-30T11:53:55.852Z,17.63
2019-05-30T11:56:25.506Z,16.17
2019-05-30T11:58:55.922Z,14.33
2019-05-30T12:01:27.250Z,15.87
2019-05-30T12:03:56.663Z,14.20
2019-05-30T12:06:26.449Z,15.30
2019-05-30T12:08:56.923Z,14.33
2019-05-30T12:11:26.446Z,13.67
2019-05-30T12:13:57.334Z,13.50
2019-05-30T12:16:26.970Z,14.77
2019-05-30T12:18:57.868Z,18.10
2019-05-30T12:21:29.816Z,14.83
2019-05-30T12:24:00.208Z,12.87
2019-05-30T12:26:29.796Z,13.03
2019-05-30T12:29:00.136Z,13.70
2019-05-30T12:31:29.621Z,13.20
2019-05-30T12:34:00.436Z,15.00
2019-05-30T12:36:30.052Z,12.83
2019-05-30T12:39:00.441Z,13.63
2019-05-30T12:41:29.981Z,14.83
2019-05-30T12:43:59.404Z,12.00
2019-05-30T12:46:28.913Z,11.70
2019-05-30T12:48:59.421Z,11.77
2019-05-30T12:51:28.914Z,9.87
2019-05-30T12:53:58.523Z,11.30
2019-05-30T12:56:28.028Z,9.40
2019-05-30T12:58:58.618Z,10.23
2019-05-30T13:01:28.226Z,10.17
2019-05-30T13:03:58.869Z,12.90
2019-05-30T13:06:28.580Z,10.07
2019-05-30T13:08:59.039Z,12.57
2019-05-30T13:11:28.578Z,12.23
2019-05-30T13:13:58.485Z,10.27
2019-05-30T13:16:28.031Z,11.23
2019-05-30T13:18:57.948Z,8.97
2019-05-30T13:21:27.720Z,11.60
2019-05-30T13:23:57.535Z,10.33
2019-05-30T13:26:27.069Z,8.60
2019-05-30T13:28:56.467Z,9.13
2019-05-30T13:31:25.966Z,11.57
2019-05-30T13:33:56.680Z,9.17
2019-05-30T13:36:26.245Z,10.17
2019-05-30T13:38:57.012Z,8.47
2019-05-30T13:41:26.982Z,8.90
2019-05-30T13:43:57.841Z,9.07
2019-05-30T13:46:28.076Z,10.20
2019-05-30T13:48:58.489Z,12.77
2019-05-30T13:51:27.936Z,13.83
2019-05-30T13:53:57.511Z,9.73
2019-05-30T13:56:27.146Z,8.87
2019-05-30T13:58:56.549Z,10.63
2019-05-30T14:01:29.097Z,10.47
2019-05-30T14:03:59.925Z,11.73
2019-05-30T14:06:29.512Z,12.27
2019-05-30T14:09:00.135Z,11.00
2019-05-30T14:11:29.657Z,7.77
2019-05-30T14:14:00.436Z,11.20
2019-05-30T14:16:30.012Z,9.93
2019-05-30T14:19:00.920Z,10.93
2019-05-30T14:21:30.528Z,9.37
2019-05-30T14:24:01.251Z,8.40
2019-05-30T14:26:30.786Z,8.40
2019-05-30T14:29:01.747Z,7.43
2019-05-30T14:31:31.444Z,9.30
2019-05-30T14:34:02.087Z,12.13
2019-05-30T14:36:31.658Z,9.47
2019-05-30T14:39:02.685Z,8.47
2019-05-30T14:41:32.126Z,9.60
2019-05-30T14:44:01.569Z,10.97
2019-05-30T14:46:31.202Z,11.87
2019-05-30T14:49:00.864Z,9.83
2019-05-30T14:51:30.410Z,10.13
2019-05-30T14:54:00.048Z,10.60
2019-05-30T14:56:29.574Z,11.30
2019-05-30T14:58:59.143Z,10.30
2019-05-30T15:01:28.594Z,10.00
2019-05-30T15:03:57.996Z,14.47
2019-05-30T15:06:27.454Z,12.07
2019-05-30T15:08:56.892Z,8.97
2019-05-30T15:11:28.120Z,8.43
2019-05-30T15:13:57.528Z,9.70
2019-05-30T15:16:27.035Z,8.60
2019-05-30T15:18:56.456Z,11.60
2019-05-30T15:21:25.962Z,9.73
2019-05-30T15:23:56.888Z,13.27
2019-05-30T15:26:26.409Z,12.03
2019-05-30T15:28:55.865Z,10.70
2019-05-30T15:31:25.392Z,10.57
2019-05-30T15:33:54.822Z,13.23
2019-05-30T15:36:24.335Z,12.00
2019-05-30T15:38:53.794Z,10.23
2019-05-30T15:41:23.313Z,13.53
2019-05-30T15:43:52.753Z,14.97
2019-05-30T15:46:22.177Z,12.80
2019-05-30T15:48:53.338Z,13.80
2019-05-30T15:51:23.237Z,17.20
2019-05-30T15:53:52.683Z,13.40
2019-05-30T15:56:22.102Z,13.63
2019-05-30T15:58:51.569Z,13.53
2019-05-30T16:01:21.822Z,13.47
2019-05-30T16:03:51.235Z,10.67
2019-05-30T16:06:20.894Z,13.77
2019-05-30T16:08:51.904Z,12.30
2019-05-30T16:11:21.523Z,10.83
2019-05-30T16:13:50.936Z,13.47
2019-05-30T16:16:33.759Z,12.57
2019-05-30T16:18:51.791Z,13.63
2019-05-30T16:21:22.453Z,12.40
2019-05-30T16:23:51.946Z,11.30
2019-05-30T16:26:22.004Z,11.43
2019-05-30T16:28:51.465Z,13.80
2019-05-30T16:31:22.396Z,12.57
2019-05-30T16:33:51.884Z,12.17
2019-05-30T16:36:22.499Z,9.63
2019-05-30T16:38:52.165Z,9.60
2019-05-30T16:41:24.345Z,11.23
2019-05-30T16:43:53.766Z,9.23
2019-05-30T16:46:23.199Z,9.97
2019-05-30T16:48:53.121Z,10.77
2019-05-30T16:51:23.574Z,9.90
2019-05-30T16:53:53.198Z,10.70
2019-05-30T16:56:23.570Z,11.80
2019-05-30T16:58:53.282Z,11.77
2019-05-30T17:01:23.984Z,11.40
2019-05-30T17:03:53.810Z,10.47
2019-05-30T17:06:23.254Z,12.60
2019-05-30T17:08:52.650Z,13.20
2019-05-30T17:11:22.091Z,15.07
2019-05-30T17:13:51.774Z,14.63
2019-05-30T17:16:22.103Z,13.60
2019-05-30T17:18:51.682Z,15.27
2019-05-30T17:21:21.270Z,13.17
2019-05-30T17:23:51.817Z,14.33
2019-05-30T17:26:21.340Z,9.90
2019-05-30T17:28:50.768Z,10.53
2019-05-30T17:31:20.279Z,11.43
2019-05-30T17:33:49.672Z,7.83
2019-05-30T17:36:20.074Z,9.10
2019-05-30T17:38:49.468Z,10.13
2019-05-30T17:41:18.905Z,11.60
2019-05-30T17:43:49.083Z,8.60
2019-05-30T17:46:19.252Z,9.70
2019-05-30T17:48:48.752Z,10.13
2019-05-30T17:51:19.672Z,11.73
2019-05-30T17:53:49.198Z,12.43
2019-05-30T17:56:19.882Z,12.17
2019-05-30T17:58:49.530Z,12.47
2019-05-30T18:01:20.165Z,11.23
2019-05-30T18:03:49.824Z,12.00
2019-05-30T18:06:20.397Z,9.50
2019-05-30T18:08:49.978Z,13.23
2019-05-30T18:11:20.707Z,13.27
2019-05-30T18:13:50.258Z,10.80
2019-05-30T18:16:21.237Z,10.90
2019-05-30T18:18:50.675Z,14.07
2019-05-30T18:21:21.241Z,11.10
2019-05-30T18:23:51.436Z,13.03
2019-05-30T18:26:21.465Z,12.60
2019-05-30T18:28:51.060Z,12.50
2019-05-30T18:31:21.807Z,15.53
2019-05-30T18:33:51.294Z,12.50
2019-05-30T18:36:22.201Z,13.80
2019-05-30T18:38:51.663Z,13.33
2019-05-30T18:41:22.559Z,13.30
2019-05-30T18:43:52.084Z,12.87
2019-05-30T18:46:22.923Z,11.93
2019-05-30T18:48:52.430Z,12.40
2019-05-30T18:51:21.880Z,15.07
2019-05-30T18:53:54.046Z,13.57
2019-05-30T18:56:26.494Z,16.67
2019-05-30T18:58:56.091Z,16.50
2019-05-30T19:01:25.505Z,14.17
2019-05-30T19:03:54.945Z,17.03
2019-05-30T19:06:25.558Z,15.90
2019-05-30T19:08:55.095Z,15.60
2019-05-30T19:11:29.612Z,12.23
2019-05-30T19:13:55.758Z,11.83
2019-05-30T19:16:26.322Z,19.23
2019-05-30T19:18:55.850Z,15.70
2019-05-30T19:21:25.790Z,14.13
2019-05-30T19:23:56.697Z,15.90
2019-05-30T19:26:26.263Z,15.47
2019-05-30T19:28:55.634Z,18.33
2019-05-30T19:31:26.391Z,18.03
2019-05-30T19:33:57.473Z,17.33
2019-05-30T19:36:27.038Z,18.43
2019-05-30T19:38:56.550Z,18.57
2019-05-30T19:41:27.342Z,13.87
2019-05-30T19:43:57.398Z,19.80
2019-05-30T19:46:28.035Z,19.07
2019-05-30T19:48:57.736Z,16.03
2019-05-30T19:51:28.623Z,19.83
2019-05-30T19:53:58.115Z,16.60
2019-05-30T19:56:27.523Z,17.73
2019-05-30T19:58:57.012Z,16.03
2019-05-30T20:01:26.461Z,17.00
2019-05-30T20:03:55.877Z,17.30
2019-05-30T20:06:25.323Z,19.67
2019-05-30T20:08:55.952Z,15.40
2019-05-30T20:11:27.623Z,18.60
2019-05-30T20:13:57.269Z,16.23
2019-05-30T20:16:26.719Z,13.00
2019-05-30T20:18:56.233Z,17.17
2019-05-30T20:21:25.943Z,18.07
2019-05-30T20:23:59.253Z,15.07
2019-05-30T20:26:26.495Z,13.33
2019-05-30T20:28:55.933Z,16.77
2019-05-30T20:31:25.478Z,18.17
2019-05-30T20:33:55.005Z,16.93
2019-05-30T20:36:24.414Z,13.93
2019-05-30T20:38:54.117Z,15.30
2019-05-30T20:41:24.407Z,12.43
2019-05-30T20:43:53.851Z,12.30
2019-05-30T20:46:23.884Z,13.67
2019-05-30T20:48:53.421Z,14.73
2019-05-30T20:51:23.595Z,13.97
2019-05-30T20:53:54.879Z,14.43
2019-05-30T20:56:24.477Z,15.13
2019-05-30T20:58:53.914Z,13.57
2019-05-30T21:01:23.451Z,11.67
2019-05-30T21:03:52.956Z,13.00
2019-05-30T21:06:23.185Z,13.47
2019-05-30T21:08:52.766Z,11.40
2019-05-30T21:11:24.893Z,12.20
2019-05-30T21:13:54.345Z,12.73
2019-05-30T21:16:23.983Z,12.53
2019-05-30T21:18:53.553Z,13.73
2019-05-30T21:21:24.394Z,12.03
2019-05-30T21:23:53.978Z,12.80
2019-05-30T21:26:23.437Z,12.53
2019-05-30T21:28:54.390Z,13.43
2019-05-30T21:31:23.879Z,15.33
2019-05-30T21:33:53.304Z,13.13
2019-05-30T21:36:26.358Z,14.47
2019-05-30T21:38:53.958Z,12.20
2019-05-30T21:41:23.430Z,15.17
2019-05-30T21:43:52.964Z,13.93
2019-05-30T21:46:22.415Z,15.27
2019-05-30T21:48:52.163Z,14.37
2019-05-30T21:51:21.909Z,14.77
2019-05-30T21:53:51.343Z,11.10
2019-05-30T21:56:20.795Z,16.50
2019-05-30T21:58:50.462Z,14.27
2019-05-30T22:01:23.161Z,12.10
2019-05-30T22:03:52.661Z,16.13
2019-05-30T22:06:22.154Z,14.47
2019-05-30T22:08:51.763Z,18.87
2019-05-30T22:11:21.550Z,18.93
2019-05-30T22:13:52.029Z,19.50
2019-05-30T22:16:21.917Z,19.37
2019-05-30T22:18:52.253Z,19.93
2019-05-30T22:21:21.894Z,22.23
2019-05-30T22:23:52.513Z,20.87
2019-05-30T22:26:23.033Z,26.80
2019-05-30T22:28:52.753Z,25.70
2019-05-30T22:31:24.724Z,27.03
2019-05-30T22:33:54.133Z,29.47
2019-05-30T22:36:25.126Z,29.80
2019-05-30T22:38:54.518Z,29.30
2019-05-30T22:41:23.977Z,28.17
2019-05-30T22:43:53.377Z,30.93
2019-05-30T22:46:22.847Z,33.03
2019-05-30T22:48:52.959Z,35.13
2019-05-30T22:51:22.584Z,30.73
2019-05-30T22:53:53.217Z,27.43
2019-05-30T22:56:23.159Z,29.77
2019-05-30T22:58:53.843Z,32.27
2019-05-30T23:01:23.496Z,30.03
2019-05-30T23:03:53.961Z,33.80
2019-05-30T23:06:23.763Z,29.53
2019-05-30T23:08:53.258Z,34.70
2019-05-30T23:11:22.700Z,30.10
2019-05-30T23:13:52.100Z,30.73
2019-05-30T23:16:21.812Z,29.43
2019-05-30T23:18:52.505Z,31.03
2019-05-30T23:21:22.045Z,34.80
2019-05-30T23:23:53.378Z,32.03
2019-05-30T23:26:23.550Z,31.33
2019-05-30T23:28:53.790Z,33.20
2019-05-30T23:31:23.520Z,31.03
2019-05-30T23:33:54.373Z,32.17
2019-05-30T23:36:24.180Z,33.37
2019-05-30T23:38:54.911Z,30.13
2019-05-30T23:41:24.475Z,32.07
2019-05-30T23:44:03.641Z,28.37
2019-05-30T23:46:25.919Z,33.67
2019-05-30T23:48:55.811Z,33.97
2019-05-30T23:51:26.087Z,35.63
2019-05-30T23:53:56.219Z,35.60
2019-05-30T23:56:25.944Z,30.83
2019-05-30T23:58:57.271Z,33.83
